sensor_id;sensor_type;location;lat;lon;timestamp;P1;durP1;ratioP1;P2;durP2;ratioP2
78542;SDS011;67836;52.430;14.446;2023-07-09T00:00:16;7.07;;;3.72;;
78542;SDS011;67836;52.430;14.446;2023-07-09T00:03:02;9.13;;;4.25;;
78542;SDS011;67836;52.430;14.446;2023-07-09T00:05:47;8.50;;;4.18;;
78542;SDS011;67836;52.430;14.446;2023-07-09T00:08:32;7.55;;;4.00;;
78542;SDS011;67836;52.430;14.446;2023-07-09T00:11:17;7.78;;;4.50;;
78542;SDS011;67836;52.430;14.446;2023-07-09T00:14:01;7.72;;;4.38;;
78542;SDS011;67836;52.430;14.446;2023-07-09T00:16:45;7.55;;;4.13;;
78542;SDS011;67836;52.430;14.446;2023-07-09T00:19:32;8.70;;;5.00;;
78542;SDS011;67836;52.430;14.446;2023-07-09T00:25:00;8.82;;;4.70;;
78542;SDS011;67836;52.430;14.446;2023-07-09T00:27:45;8.45;;;4.30;;
78542;SDS011;67836;52.430;14.446;2023-07-09T00:30:33;8.02;;;4.53;;
78542;SDS011;67836;52.430;14.446;2023-07-09T00:36:04;9.52;;;4.57;;
78542;SDS011;67836;52.430;14.446;2023-07-09T00:39:16;7.82;;;4.20;;
78542;SDS011;67836;52.430;14.446;2023-07-09T00:42:01;12.88;;;4.32;;
78542;SDS011;67836;52.430;14.446;2023-07-09T00:44:46;8.90;;;4.45;;
78542;SDS011;67836;52.430;14.446;2023-07-09T00:50:26;7.10;;;4.05;;
78542;SDS011;67836;52.430;14.446;2023-07-09T00:57:14;10.77;;;5.00;;
78542;SDS011;67836;52.430;14.446;2023-07-09T01:00:03;8.52;;;4.97;;
78542;SDS011;67836;52.430;14.446;2023-07-09T01:02:58;8.40;;;4.32;;
78542;SDS011;67836;52.430;14.446;2023-07-09T01:05:42;8.50;;;4.50;;
78542;SDS011;67836;52.430;14.446;2023-07-09T01:08:28;7.38;;;4.38;;
78542;SDS011;67836;52.430;14.446;2023-07-09T01:11:17;9.65;;;5.22;;
78542;SDS011;67836;52.430;14.446;2023-07-09T01:14:05;8.57;;;4.63;;
78542;SDS011;67836;52.430;14.446;2023-07-09T01:16:55;9.18;;;4.40;;
78542;SDS011;67836;52.430;14.446;2023-07-09T01:19:43;8.75;;;4.78;;
78542;SDS011;67836;52.430;14.446;2023-07-09T01:22:28;9.60;;;5.05;;
78542;SDS011;67836;52.430;14.446;2023-07-09T01:25:13;9.25;;;5.10;;
78542;SDS011;67836;52.430;14.446;2023-07-09T01:27:58;9.77;;;5.00;;
78542;SDS011;67836;52.430;14.446;2023-07-09T01:30:42;8.57;;;4.80;;
78542;SDS011;67836;52.430;14.446;2023-07-09T01:33:26;9.50;;;5.20;;
78542;SDS011;67836;52.430;14.446;2023-07-09T01:38:57;7.80;;;4.57;;
78542;SDS011;67836;52.430;14.446;2023-07-09T01:41:41;9.52;;;4.90;;
78542;SDS011;67836;52.430;14.446;2023-07-09T01:44:25;9.52;;;5.20;;
78542;SDS011;67836;52.430;14.446;2023-07-09T01:47:13;9.30;;;4.70;;
78542;SDS011;67836;52.430;14.446;2023-07-09T01:49:57;8.60;;;4.60;;
78542;SDS011;67836;52.430;14.446;2023-07-09T01:52:41;9.45;;;5.03;;
78542;SDS011;67836;52.430;14.446;2023-07-09T01:55:26;9.68;;;4.88;;
78542;SDS011;67836;52.430;14.446;2023-07-09T01:58:11;7.95;;;5.03;;
78542;SDS011;67836;52.430;14.446;2023-07-09T02:03:39;8.82;;;4.43;;
78542;SDS011;67836;52.430;14.446;2023-07-09T02:06:23;8.13;;;4.05;;
78542;SDS011;67836;52.430;14.446;2023-07-09T02:09:08;7.97;;;4.72;;
78542;SDS011;67836;52.430;14.446;2023-07-09T02:11:52;9.30;;;4.50;;
78542;SDS011;67836;52.430;14.446;2023-07-09T02:14:36;10.05;;;4.57;;
78542;SDS011;67836;52.430;14.446;2023-07-09T02:17:22;9.52;;;4.95;;
78542;SDS011;67836;52.430;14.446;2023-07-09T02:20:06;9.73;;;5.15;;
78542;SDS011;67836;52.430;14.446;2023-07-09T02:22:51;7.80;;;4.65;;
78542;SDS011;67836;52.430;14.446;2023-07-09T02:25:35;10.05;;;4.65;;
78542;SDS011;67836;52.430;14.446;2023-07-09T02:31:02;9.10;;;5.10;;
78542;SDS011;67836;52.430;14.446;2023-07-09T02:33:47;8.85;;;4.97;;
78542;SDS011;67836;52.430;14.446;2023-07-09T02:36:31;10.35;;;5.32;;
78542;SDS011;67836;52.430;14.446;2023-07-09T02:39:14;9.07;;;5.38;;
78542;SDS011;67836;52.430;14.446;2023-07-09T02:44:43;8.30;;;4.95;;
78542;SDS011;67836;52.430;14.446;2023-07-09T02:47:27;9.02;;;4.82;;
78542;SDS011;67836;52.430;14.446;2023-07-09T02:52:54;8.10;;;3.80;;
78542;SDS011;67836;52.430;14.446;2023-07-09T02:55:38;9.40;;;5.70;;
78542;SDS011;67836;52.430;14.446;2023-07-09T02:58:22;8.55;;;4.95;;
78542;SDS011;67836;52.430;14.446;2023-07-09T03:01:06;12.40;;;5.40;;
78542;SDS011;67836;52.430;14.446;2023-07-09T03:03:54;9.65;;;5.75;;
78542;SDS011;67836;52.430;14.446;2023-07-09T03:06:38;9.00;;;5.05;;
78542;SDS011;67836;52.430;14.446;2023-07-09T03:09:23;8.80;;;4.90;;
78542;SDS011;67836;52.430;14.446;2023-07-09T03:12:07;10.15;;;5.82;;
78542;SDS011;67836;52.430;14.446;2023-07-09T03:14:52;8.98;;;4.95;;
78542;SDS011;67836;52.430;14.446;2023-07-09T03:17:36;11.93;;;5.72;;
78542;SDS011;67836;52.430;14.446;2023-07-09T03:20:19;10.25;;;5.72;;
78542;SDS011;67836;52.430;14.446;2023-07-09T03:23:04;11.93;;;6.60;;
78542;SDS011;67836;52.430;14.446;2023-07-09T03:25:48;9.70;;;6.07;;
78542;SDS011;67836;52.430;14.446;2023-07-09T03:28:32;10.23;;;5.90;;
78542;SDS011;67836;52.430;14.446;2023-07-09T03:31:16;8.82;;;5.30;;
78542;SDS011;67836;52.430;14.446;2023-07-09T03:34:00;10.15;;;5.45;;
78542;SDS011;67836;52.430;14.446;2023-07-09T03:36:44;8.88;;;5.10;;
78542;SDS011;67836;52.430;14.446;2023-07-09T03:39:28;12.23;;;5.38;;
78542;SDS011;67836;52.430;14.446;2023-07-09T03:42:12;9.50;;;5.10;;
78542;SDS011;67836;52.430;14.446;2023-07-09T03:44:56;11.57;;;5.25;;
78542;SDS011;67836;52.430;14.446;2023-07-09T03:47:40;9.07;;;5.25;;
78542;SDS011;67836;52.430;14.446;2023-07-09T03:50:23;9.73;;;5.70;;
78542;SDS011;67836;52.430;14.446;2023-07-09T03:53:08;8.63;;;5.40;;
78542;SDS011;67836;52.430;14.446;2023-07-09T03:55:55;9.40;;;4.95;;
78542;SDS011;67836;52.430;14.446;2023-07-09T03:58:39;12.15;;;5.43;;
78542;SDS011;67836;52.430;14.446;2023-07-09T04:01:24;10.05;;;5.30;;
78542;SDS011;67836;52.430;14.446;2023-07-09T04:09:36;8.80;;;5.25;;
78542;SDS011;67836;52.430;14.446;2023-07-09T04:12:20;9.82;;;5.55;;
78542;SDS011;67836;52.430;14.446;2023-07-09T04:15:04;9.65;;;5.05;;
78542;SDS011;67836;52.430;14.446;2023-07-09T04:17:49;9.57;;;5.13;;
78542;SDS011;67836;52.430;14.446;2023-07-09T04:20:33;11.02;;;5.57;;
78542;SDS011;67836;52.430;14.446;2023-07-09T04:23:18;10.30;;;5.78;;
78542;SDS011;67836;52.430;14.446;2023-07-09T04:26:03;8.93;;;5.72;;
78542;SDS011;67836;52.430;14.446;2023-07-09T04:28:48;10.32;;;5.78;;
78542;SDS011;67836;52.430;14.446;2023-07-09T04:31:32;9.68;;;5.47;;
78542;SDS011;67836;52.430;14.446;2023-07-09T04:34:15;9.13;;;6.05;;
78542;SDS011;67836;52.430;14.446;2023-07-09T04:39:43;8.82;;;5.55;;
78542;SDS011;67836;52.430;14.446;2023-07-09T04:42:27;10.98;;;5.93;;
78542;SDS011;67836;52.430;14.446;2023-07-09T04:45:11;8.43;;;5.13;;
78542;SDS011;67836;52.430;14.446;2023-07-09T04:47:55;9.25;;;5.30;;
78542;SDS011;67836;52.430;14.446;2023-07-09T04:50:39;10.13;;;6.35;;
78542;SDS011;67836;52.430;14.446;2023-07-09T04:53:24;10.30;;;5.15;;
78542;SDS011;67836;52.430;14.446;2023-07-09T04:56:08;10.60;;;5.72;;
78542;SDS011;67836;52.430;14.446;2023-07-09T04:58:52;9.80;;;5.88;;
78542;SDS011;67836;52.430;14.446;2023-07-09T05:01:37;9.35;;;5.50;;
78542;SDS011;67836;52.430;14.446;2023-07-09T05:04:21;11.27;;;6.30;;
78542;SDS011;67836;52.430;14.446;2023-07-09T05:12:33;9.52;;;5.78;;
78542;SDS011;67836;52.430;14.446;2023-07-09T05:18:47;10.18;;;6.25;;
78542;SDS011;67836;52.430;14.446;2023-07-09T05:21:31;8.35;;;5.15;;
78542;SDS011;67836;52.430;14.446;2023-07-09T05:24:16;10.68;;;6.03;;
78542;SDS011;67836;52.430;14.446;2023-07-09T05:27:00;9.90;;;5.70;;
78542;SDS011;67836;52.430;14.446;2023-07-09T05:29:44;8.27;;;5.28;;
78542;SDS011;67836;52.430;14.446;2023-07-09T05:32:28;10.57;;;5.60;;
78542;SDS011;67836;52.430;14.446;2023-07-09T05:35:12;7.47;;;4.28;;
78542;SDS011;67836;52.430;14.446;2023-07-09T05:37:56;8.93;;;5.30;;
78542;SDS011;67836;52.430;14.446;2023-07-09T05:40:40;9.27;;;5.97;;
78542;SDS011;67836;52.430;14.446;2023-07-09T05:43:25;10.45;;;5.63;;
78542;SDS011;67836;52.430;14.446;2023-07-09T05:46:09;8.90;;;5.57;;
78542;SDS011;67836;52.430;14.446;2023-07-09T05:48:54;8.60;;;5.57;;
78542;SDS011;67836;52.430;14.446;2023-07-09T05:55:25;8.27;;;5.03;;
78542;SDS011;67836;52.430;14.446;2023-07-09T05:58:09;9.18;;;5.38;;
78542;SDS011;67836;52.430;14.446;2023-07-09T06:00:53;7.55;;;5.03;;
78542;SDS011;67836;52.430;14.446;2023-07-09T06:03:37;8.32;;;4.43;;
78542;SDS011;67836;52.430;14.446;2023-07-09T06:06:21;8.52;;;5.35;;
78542;SDS011;67836;52.430;14.446;2023-07-09T06:09:05;8.80;;;5.10;;
78542;SDS011;67836;52.430;14.446;2023-07-09T06:11:49;8.50;;;5.47;;
78542;SDS011;67836;52.430;14.446;2023-07-09T06:14:33;7.43;;;4.95;;
78542;SDS011;67836;52.430;14.446;2023-07-09T06:17:18;9.50;;;5.07;;
78542;SDS011;67836;52.430;14.446;2023-07-09T06:20:01;7.78;;;5.25;;
78542;SDS011;67836;52.430;14.446;2023-07-09T06:22:46;6.80;;;4.45;;
78542;SDS011;67836;52.430;14.446;2023-07-09T06:25:30;8.32;;;4.88;;
78542;SDS011;67836;52.430;14.446;2023-07-09T06:28:15;7.85;;;4.53;;
78542;SDS011;67836;52.430;14.446;2023-07-09T06:30:59;7.45;;;4.38;;
78542;SDS011;67836;52.430;14.446;2023-07-09T06:33:44;8.07;;;5.30;;
78542;SDS011;67836;52.430;14.446;2023-07-09T06:36:28;8.07;;;4.95;;
78542;SDS011;67836;52.430;14.446;2023-07-09T06:39:12;8.30;;;4.72;;
78542;SDS011;67836;52.430;14.446;2023-07-09T06:41:56;10.75;;;4.65;;
78542;SDS011;67836;52.430;14.446;2023-07-09T06:44:40;8.57;;;4.80;;
78542;SDS011;67836;52.430;14.446;2023-07-09T06:47:24;7.10;;;4.25;;
78542;SDS011;67836;52.430;14.446;2023-07-09T06:50:08;7.70;;;4.70;;
78542;SDS011;67836;52.430;14.446;2023-07-09T06:52:52;7.15;;;4.45;;
78542;SDS011;67836;52.430;14.446;2023-07-09T06:55:37;8.82;;;4.82;;
78542;SDS011;67836;52.430;14.446;2023-07-09T06:58:22;7.88;;;4.93;;
78542;SDS011;67836;52.430;14.446;2023-07-09T07:01:09;11.10;;;4.80;;
78542;SDS011;67836;52.430;14.446;2023-07-09T07:03:54;7.00;;;4.45;;
78542;SDS011;67836;52.430;14.446;2023-07-09T07:06:38;8.98;;;4.78;;
78542;SDS011;67836;52.430;14.446;2023-07-09T07:09:22;7.00;;;4.22;;
78542;SDS011;67836;52.430;14.446;2023-07-09T07:12:07;7.20;;;4.50;;
78542;SDS011;67836;52.430;14.446;2023-07-09T07:14:52;8.00;;;4.60;;
78542;SDS011;67836;52.430;14.446;2023-07-09T07:17:36;7.70;;;4.38;;
78542;SDS011;67836;52.430;14.446;2023-07-09T07:20:20;6.85;;;4.05;;
78542;SDS011;67836;52.430;14.446;2023-07-09T07:23:04;7.38;;;4.18;;
78542;SDS011;67836;52.430;14.446;2023-07-09T07:25:47;6.45;;;3.90;;
78542;SDS011;67836;52.430;14.446;2023-07-09T07:28:33;8.85;;;5.53;;
78542;SDS011;67836;52.430;14.446;2023-07-09T07:31:20;7.50;;;4.18;;
78542;SDS011;67836;52.430;14.446;2023-07-09T07:34:04;6.82;;;3.88;;
78542;SDS011;67836;52.430;14.446;2023-07-09T07:36:49;7.15;;;4.18;;
78542;SDS011;67836;52.430;14.446;2023-07-09T07:39:33;7.25;;;4.22;;
78542;SDS011;67836;52.430;14.446;2023-07-09T07:42:17;6.68;;;4.15;;
78542;SDS011;67836;52.430;14.446;2023-07-09T07:45:01;6.32;;;3.88;;
78542;SDS011;67836;52.430;14.446;2023-07-09T07:47:47;7.13;;;4.20;;
78542;SDS011;67836;52.430;14.446;2023-07-09T07:50:31;6.78;;;3.90;;
78542;SDS011;67836;52.430;14.446;2023-07-09T07:53:15;8.63;;;3.97;;
78542;SDS011;67836;52.430;14.446;2023-07-09T07:56:00;7.00;;;3.78;;
78542;SDS011;67836;52.430;14.446;2023-07-09T07:58:46;6.22;;;3.63;;
78542;SDS011;67836;52.430;14.446;2023-07-09T08:01:30;7.93;;;3.55;;
78542;SDS011;67836;52.430;14.446;2023-07-09T08:04:14;7.47;;;3.50;;
78542;SDS011;67836;52.430;14.446;2023-07-09T08:06:58;7.03;;;3.58;;
78542;SDS011;67836;52.430;14.446;2023-07-09T08:09:42;6.38;;;3.60;;
78542;SDS011;67836;52.430;14.446;2023-07-09T08:12:26;7.07;;;3.58;;
78542;SDS011;67836;52.430;14.446;2023-07-09T08:15:11;7.25;;;3.88;;
78542;SDS011;67836;52.430;14.446;2023-07-09T08:17:55;5.35;;;3.17;;
78542;SDS011;67836;52.430;14.446;2023-07-09T08:20:42;7.22;;;3.42;;
78542;SDS011;67836;52.430;14.446;2023-07-09T08:23:27;7.18;;;3.90;;
78542;SDS011;67836;52.430;14.446;2023-07-09T08:26:11;5.32;;;3.13;;
78542;SDS011;67836;52.430;14.446;2023-07-09T08:28:55;6.20;;;3.72;;
78542;SDS011;67836;52.430;14.446;2023-07-09T08:31:39;6.65;;;3.53;;
78542;SDS011;67836;52.430;14.446;2023-07-09T08:34:25;6.22;;;3.53;;
78542;SDS011;67836;52.430;14.446;2023-07-09T08:37:09;5.18;;;3.15;;
78542;SDS011;67836;52.430;14.446;2023-07-09T08:39:53;7.22;;;3.47;;
78542;SDS011;67836;52.430;14.446;2023-07-09T08:42:41;5.47;;;3.75;;
78542;SDS011;67836;52.430;14.446;2023-07-09T08:48:39;6.63;;;3.35;;
78542;SDS011;67836;52.430;14.446;2023-07-09T08:51:27;6.80;;;3.50;;
78542;SDS011;67836;52.430;14.446;2023-07-09T08:54:25;5.70;;;3.25;;
78542;SDS011;67836;52.430;14.446;2023-07-09T08:57:16;6.95;;;3.15;;
78542;SDS011;67836;52.430;14.446;2023-07-09T09:03:04;5.15;;;3.28;;
78542;SDS011;67836;52.430;14.446;2023-07-09T09:05:51;5.80;;;3.08;;
78542;SDS011;67836;52.430;14.446;2023-07-09T09:11:45;5.00;;;2.97;;
78542;SDS011;67836;52.430;14.446;2023-07-09T09:14:30;5.90;;;2.92;;
78542;SDS011;67836;52.430;14.446;2023-07-09T09:17:19;4.85;;;2.70;;
78542;SDS011;67836;52.430;14.446;2023-07-09T09:20:05;6.15;;;2.85;;
78542;SDS011;67836;52.430;14.446;2023-07-09T09:23:04;5.07;;;3.13;;
78542;SDS011;67836;52.430;14.446;2023-07-09T09:25:56;6.15;;;2.70;;
78542;SDS011;67836;52.430;14.446;2023-07-09T09:28:41;3.83;;;2.15;;
78542;SDS011;67836;52.430;14.446;2023-07-09T09:31:28;4.47;;;2.47;;
78542;SDS011;67836;52.430;14.446;2023-07-09T09:34:34;6.15;;;2.83;;
78542;SDS011;67836;52.430;14.446;2023-07-09T09:37:30;5.25;;;2.60;;
78542;SDS011;67836;52.430;14.446;2023-07-09T09:40:16;5.57;;;2.35;;
78542;SDS011;67836;52.430;14.446;2023-07-09T09:43:02;6.65;;;2.75;;
78542;SDS011;67836;52.430;14.446;2023-07-09T09:45:55;5.35;;;2.28;;
78542;SDS011;67836;52.430;14.446;2023-07-09T09:48:38;4.88;;;2.50;;
78542;SDS011;67836;52.430;14.446;2023-07-09T09:51:23;4.70;;;2.60;;
78542;SDS011;67836;52.430;14.446;2023-07-09T09:54:11;4.05;;;2.30;;
78542;SDS011;67836;52.430;14.446;2023-07-09T09:57:00;4.38;;;2.60;;
78542;SDS011;67836;52.430;14.446;2023-07-09T09:59:44;5.68;;;2.60;;
78542;SDS011;67836;52.430;14.446;2023-07-09T10:02:29;5.25;;;2.60;;
78542;SDS011;67836;52.430;14.446;2023-07-09T10:05:15;4.60;;;2.30;;
78542;SDS011;67836;52.430;14.446;2023-07-09T10:08:06;4.32;;;2.30;;
78542;SDS011;67836;52.430;14.446;2023-07-09T10:10:53;5.00;;;2.50;;
78542;SDS011;67836;52.430;14.446;2023-07-09T10:13:37;5.22;;;2.55;;
78542;SDS011;67836;52.430;14.446;2023-07-09T10:16:34;5.07;;;2.42;;
78542;SDS011;67836;52.430;14.446;2023-07-09T10:19:30;5.63;;;2.60;;
78542;SDS011;67836;52.430;14.446;2023-07-09T10:22:22;5.18;;;2.50;;
78542;SDS011;67836;52.430;14.446;2023-07-09T10:28:27;5.50;;;2.55;;
78542;SDS011;67836;52.430;14.446;2023-07-09T10:34:34;4.60;;;2.65;;
78542;SDS011;67836;52.430;14.446;2023-07-09T10:40:57;5.22;;;2.58;;
78542;SDS011;67836;52.430;14.446;2023-07-09T10:43:52;5.93;;;2.65;;
78542;SDS011;67836;52.430;14.446;2023-07-09T10:46:41;4.80;;;2.90;;
78542;SDS011;67836;52.430;14.446;2023-07-09T10:49:37;6.43;;;3.10;;
78542;SDS011;67836;52.430;14.446;2023-07-09T10:52:25;5.18;;;2.97;;
78542;SDS011;67836;52.430;14.446;2023-07-09T10:58:05;6.30;;;3.08;;
78542;SDS011;67836;52.430;14.446;2023-07-09T11:01:03;7.20;;;2.90;;
78542;SDS011;67836;52.430;14.446;2023-07-09T11:03:49;5.57;;;2.38;;
78542;SDS011;67836;52.430;14.446;2023-07-09T11:06:38;6.03;;;2.88;;
78542;SDS011;67836;52.430;14.446;2023-07-09T11:09:29;7.50;;;3.30;;
78542;SDS011;67836;52.430;14.446;2023-07-09T11:12:24;5.05;;;2.90;;
78542;SDS011;67836;52.430;14.446;2023-07-09T11:15:13;7.05;;;3.13;;
78542;SDS011;67836;52.430;14.446;2023-07-09T11:18:00;5.03;;;3.00;;
78542;SDS011;67836;52.430;14.446;2023-07-09T11:20:44;5.43;;;3.15;;
78542;SDS011;67836;52.430;14.446;2023-07-09T11:23:36;5.88;;;2.92;;
78542;SDS011;67836;52.430;14.446;2023-07-09T11:26:34;5.72;;;3.20;;
78542;SDS011;67836;52.430;14.446;2023-07-09T11:29:23;6.15;;;3.00;;
78542;SDS011;67836;52.430;14.446;2023-07-09T11:32:08;6.88;;;2.90;;
78542;SDS011;67836;52.430;14.446;2023-07-09T11:34:52;5.65;;;2.78;;
78542;SDS011;67836;52.430;14.446;2023-07-09T11:37:44;5.25;;;2.72;;
78542;SDS011;67836;52.430;14.446;2023-07-09T11:40:28;4.77;;;2.80;;
78542;SDS011;67836;52.430;14.446;2023-07-09T11:43:25;5.30;;;2.97;;
78542;SDS011;67836;52.430;14.446;2023-07-09T11:46:13;5.05;;;2.90;;
78542;SDS011;67836;52.430;14.446;2023-07-09T11:49:02;4.70;;;2.60;;
78542;SDS011;67836;52.430;14.446;2023-07-09T11:51:48;4.60;;;2.80;;
78542;SDS011;67836;52.430;14.446;2023-07-09T11:54:36;5.82;;;2.88;;
78542;SDS011;67836;52.430;14.446;2023-07-09T11:57:20;6.63;;;3.03;;
78542;SDS011;67836;52.430;14.446;2023-07-09T12:00:04;5.55;;;3.15;;
78542;SDS011;67836;52.430;14.446;2023-07-09T12:02:48;7.30;;;3.00;;
78542;SDS011;67836;52.430;14.446;2023-07-09T12:05:33;5.90;;;2.92;;
78542;SDS011;67836;52.430;14.446;2023-07-09T12:08:18;5.57;;;3.13;;
78542;SDS011;67836;52.430;14.446;2023-07-09T12:11:05;5.43;;;2.80;;
78542;SDS011;67836;52.430;14.446;2023-07-09T12:13:50;5.63;;;3.00;;
78542;SDS011;67836;52.430;14.446;2023-07-09T12:16:35;5.43;;;2.95;;
78542;SDS011;67836;52.430;14.446;2023-07-09T12:19:22;5.72;;;3.20;;
78542;SDS011;67836;52.430;14.446;2023-07-09T12:22:14;5.50;;;3.15;;
78542;SDS011;67836;52.430;14.446;2023-07-09T12:25:01;5.35;;;2.97;;
78542;SDS011;67836;52.430;14.446;2023-07-09T12:27:45;5.90;;;2.97;;
78542;SDS011;67836;52.430;14.446;2023-07-09T12:30:32;5.25;;;2.88;;
78542;SDS011;67836;52.430;14.446;2023-07-09T12:33:17;6.47;;;3.58;;
78542;SDS011;67836;52.430;14.446;2023-07-09T12:36:04;5.68;;;2.50;;
78542;SDS011;67836;52.430;14.446;2023-07-09T12:38:50;7.00;;;3.22;;
78542;SDS011;67836;52.430;14.446;2023-07-09T12:41:35;5.78;;;2.45;;
78542;SDS011;67836;52.430;14.446;2023-07-09T12:44:22;6.38;;;3.00;;
78542;SDS011;67836;52.430;14.446;2023-07-09T12:47:07;5.60;;;2.92;;
78542;SDS011;67836;52.430;14.446;2023-07-09T12:50:00;5.53;;;3.00;;
78542;SDS011;67836;52.430;14.446;2023-07-09T12:53:03;6.45;;;3.03;;
78542;SDS011;67836;52.430;14.446;2023-07-09T12:55:55;5.60;;;3.17;;
78542;SDS011;67836;52.430;14.446;2023-07-09T12:58:40;5.90;;;2.90;;
78542;SDS011;67836;52.430;14.446;2023-07-09T13:01:24;5.30;;;3.00;;
78542;SDS011;67836;52.430;14.446;2023-07-09T13:04:10;6.78;;;2.97;;
78542;SDS011;67836;52.430;14.446;2023-07-09T13:06:55;6.63;;;2.92;;
78542;SDS011;67836;52.430;14.446;2023-07-09T13:09:47;5.72;;;3.15;;
78542;SDS011;67836;52.430;14.446;2023-07-09T13:12:38;5.63;;;2.93;;
78542;SDS011;67836;52.430;14.446;2023-07-09T13:15:27;7.40;;;3.05;;
78542;SDS011;67836;52.430;14.446;2023-07-09T13:18:13;6.22;;;3.00;;
78542;SDS011;67836;52.430;14.446;2023-07-09T13:20:58;4.82;;;2.70;;
78542;SDS011;67836;52.430;14.446;2023-07-09T13:23:43;5.22;;;2.80;;
78542;SDS011;67836;52.430;14.446;2023-07-09T13:26:27;5.28;;;3.00;;
78542;SDS011;67836;52.430;14.446;2023-07-09T13:29:15;5.35;;;2.50;;
78542;SDS011;67836;52.430;14.446;2023-07-09T13:32:00;4.90;;;2.72;;
78542;SDS011;67836;52.430;14.446;2023-07-09T13:34:44;6.47;;;3.00;;
78542;SDS011;67836;52.430;14.446;2023-07-09T13:37:28;5.55;;;2.88;;
78542;SDS011;67836;52.430;14.446;2023-07-09T13:40:14;4.68;;;2.75;;
78542;SDS011;67836;52.430;14.446;2023-07-09T13:42:59;6.13;;;2.90;;
78542;SDS011;67836;52.430;14.446;2023-07-09T13:45:43;6.13;;;3.10;;
78542;SDS011;67836;52.430;14.446;2023-07-09T13:48:27;6.43;;;3.13;;
78542;SDS011;67836;52.430;14.446;2023-07-09T13:51:19;8.13;;;3.15;;
78542;SDS011;67836;52.430;14.446;2023-07-09T13:54:09;5.68;;;2.88;;
78542;SDS011;67836;52.430;14.446;2023-07-09T13:56:57;6.03;;;3.20;;
78542;SDS011;67836;52.430;14.446;2023-07-09T13:59:41;6.72;;;3.30;;
78542;SDS011;67836;52.430;14.446;2023-07-09T14:02:31;6.88;;;3.20;;
78542;SDS011;67836;52.430;14.446;2023-07-09T14:05:16;6.25;;;3.10;;
78542;SDS011;67836;52.430;14.446;2023-07-09T14:08:00;5.05;;;2.90;;
78542;SDS011;67836;52.430;14.446;2023-07-09T14:10:45;5.70;;;3.17;;
78542;SDS011;67836;52.430;14.446;2023-07-09T14:13:29;6.88;;;3.30;;
78542;SDS011;67836;52.430;14.446;2023-07-09T14:16:15;6.25;;;3.30;;
78542;SDS011;67836;52.430;14.446;2023-07-09T14:19:00;6.85;;;3.30;;
78542;SDS011;67836;52.430;14.446;2023-07-09T14:21:44;6.53;;;3.30;;
78542;SDS011;67836;52.430;14.446;2023-07-09T14:24:28;6.32;;;3.20;;
78542;SDS011;67836;52.430;14.446;2023-07-09T14:27:12;5.72;;;3.40;;
78542;SDS011;67836;52.430;14.446;2023-07-09T14:29:57;7.82;;;2.97;;
78542;SDS011;67836;52.430;14.446;2023-07-09T14:32:41;7.18;;;3.17;;
78542;SDS011;67836;52.430;14.446;2023-07-09T14:35:25;7.45;;;3.55;;
78542;SDS011;67836;52.430;14.446;2023-07-09T14:38:18;6.45;;;3.60;;
78542;SDS011;67836;52.430;14.446;2023-07-09T14:41:08;6.20;;;3.22;;
78542;SDS011;67836;52.430;14.446;2023-07-09T14:43:59;5.93;;;3.05;;
78542;SDS011;67836;52.430;14.446;2023-07-09T14:46:43;6.85;;;3.38;;
78542;SDS011;67836;52.430;14.446;2023-07-09T14:49:27;6.47;;;3.35;;
78542;SDS011;67836;52.430;14.446;2023-07-09T14:52:12;7.60;;;3.40;;
78542;SDS011;67836;52.430;14.446;2023-07-09T14:55:01;6.63;;;3.60;;
78542;SDS011;67836;52.430;14.446;2023-07-09T14:57:47;6.88;;;3.30;;
78542;SDS011;67836;52.430;14.446;2023-07-09T15:00:31;6.05;;;3.20;;
78542;SDS011;67836;52.430;14.446;2023-07-09T15:03:22;5.90;;;3.20;;
78542;SDS011;67836;52.430;14.446;2023-07-09T15:06:08;7.05;;;3.30;;
78542;SDS011;67836;52.430;14.446;2023-07-09T15:08:54;5.75;;;3.13;;
78542;SDS011;67836;52.430;14.446;2023-07-09T15:11:39;6.05;;;2.95;;
78542;SDS011;67836;52.430;14.446;2023-07-09T15:14:24;7.05;;;3.47;;
78542;SDS011;67836;52.430;14.446;2023-07-09T15:17:12;7.63;;;3.10;;
78542;SDS011;67836;52.430;14.446;2023-07-09T15:23:17;6.50;;;3.30;;
78542;SDS011;67836;52.430;14.446;2023-07-09T15:26:01;6.88;;;3.30;;
78542;SDS011;67836;52.430;14.446;2023-07-09T15:28:45;6.65;;;3.10;;
78542;SDS011;67836;52.430;14.446;2023-07-09T15:31:33;6.78;;;3.22;;
78542;SDS011;67836;52.430;14.446;2023-07-09T15:34:17;6.03;;;3.40;;
78542;SDS011;67836;52.430;14.446;2023-07-09T15:37:04;5.97;;;3.22;;
78542;SDS011;67836;52.430;14.446;2023-07-09T15:39:54;5.53;;;2.65;;
78542;SDS011;67836;52.430;14.446;2023-07-09T15:42:38;6.90;;;3.13;;
78542;SDS011;67836;52.430;14.446;2023-07-09T15:45:22;6.03;;;3.10;;
78542;SDS011;67836;52.430;14.446;2023-07-09T15:48:06;6.60;;;3.38;;
78542;SDS011;67836;52.430;14.446;2023-07-09T15:50:50;7.15;;;3.28;;
78542;SDS011;67836;52.430;14.446;2023-07-09T15:53:35;7.07;;;3.42;;
78542;SDS011;67836;52.430;14.446;2023-07-09T15:56:22;6.57;;;3.17;;
78542;SDS011;67836;52.430;14.446;2023-07-09T15:59:18;7.70;;;3.53;;
78542;SDS011;67836;52.430;14.446;2023-07-09T16:02:13;6.10;;;2.97;;
78542;SDS011;67836;52.430;14.446;2023-07-09T16:04:58;8.52;;;3.50;;
78542;SDS011;67836;52.430;14.446;2023-07-09T16:07:42;6.65;;;3.15;;
78542;SDS011;67836;52.430;14.446;2023-07-09T16:10:26;7.22;;;3.30;;
78542;SDS011;67836;52.430;14.446;2023-07-09T16:13:16;6.95;;;3.00;;
78542;SDS011;67836;52.430;14.446;2023-07-09T16:16:03;6.00;;;3.20;;
78542;SDS011;67836;52.430;14.446;2023-07-09T16:18:46;6.22;;;2.75;;
78542;SDS011;67836;52.430;14.446;2023-07-09T16:21:31;6.18;;;2.97;;
78542;SDS011;67836;52.430;14.446;2023-07-09T16:24:19;6.43;;;2.92;;
78542;SDS011;67836;52.430;14.446;2023-07-09T16:27:05;8.23;;;3.70;;
78542;SDS011;67836;52.430;14.446;2023-07-09T16:29:50;6.47;;;3.05;;
78542;SDS011;67836;52.430;14.446;2023-07-09T16:32:34;8.82;;;3.30;;
78542;SDS011;67836;52.430;14.446;2023-07-09T16:35:19;5.68;;;2.88;;
78542;SDS011;67836;52.430;14.446;2023-07-09T16:38:04;7.10;;;3.47;;
78542;SDS011;67836;52.430;14.446;2023-07-09T16:40:48;6.60;;;2.78;;
78542;SDS011;67836;52.430;14.446;2023-07-09T16:43:32;7.82;;;3.67;;
78542;SDS011;67836;52.430;14.446;2023-07-09T16:46:17;6.25;;;3.28;;
78542;SDS011;67836;52.430;14.446;2023-07-09T16:49:11;5.70;;;2.95;;
78542;SDS011;67836;52.430;14.446;2023-07-09T16:52:12;7.40;;;3.38;;
78542;SDS011;67836;52.430;14.446;2023-07-09T16:54:58;6.40;;;3.53;;
78542;SDS011;67836;52.430;14.446;2023-07-09T16:57:42;6.80;;;3.00;;
78542;SDS011;67836;52.430;14.446;2023-07-09T17:00:27;7.40;;;3.72;;
78542;SDS011;67836;52.430;14.446;2023-07-09T17:03:13;6.13;;;3.17;;
78542;SDS011;67836;52.430;14.446;2023-07-09T17:05:57;7.80;;;3.45;;
78542;SDS011;67836;52.430;14.446;2023-07-09T17:08:41;6.28;;;3.15;;
78542;SDS011;67836;52.430;14.446;2023-07-09T17:11:25;5.80;;;2.78;;
78542;SDS011;67836;52.430;14.446;2023-07-09T17:14:13;6.97;;;3.20;;
78542;SDS011;67836;52.430;14.446;2023-07-09T17:16:58;6.75;;;3.30;;
78542;SDS011;67836;52.430;14.446;2023-07-09T17:19:43;6.70;;;3.15;;
78542;SDS011;67836;52.430;14.446;2023-07-09T17:25:38;7.78;;;3.20;;
78542;SDS011;67836;52.430;14.446;2023-07-09T17:28:24;6.38;;;3.30;;
78542;SDS011;67836;52.430;14.446;2023-07-09T17:31:11;6.30;;;2.97;;
78542;SDS011;67836;52.430;14.446;2023-07-09T17:33:56;7.63;;;3.20;;
78542;SDS011;67836;52.430;14.446;2023-07-09T17:36:40;6.97;;;3.20;;
78542;SDS011;67836;52.430;14.446;2023-07-09T17:39:25;7.97;;;3.28;;